RORT(METAR)
05/21 16:00
RORT 210700Z 01011KT 9999 FEW019 SCT024 26/21 Q1006 RMK A2973=
戻る
トップページへ戻る
IMOC Co,.Ltd.